Time;durP1;ratioP1;P1;durP2;ratioP2;P2;SDS_P1;SDS_P2;PMS_P1;PMS_P2;Temp;Humidity;BMP_temperature;BMP_pressure;BME280_temperature;BME280_humidity;BME280_pressure;Samples;Min_cycle;Max_cycle;Signal;HPM_P1;HPM_P2
2022/11/16 00:02:12;;;;;;;147.37;53.37;;;10.80;99.90;;;;;;5095851;28;20183;-73
2022/11/16 00:04:38;;;;;;;170.27;56.75;;;10.80;99.90;;;;;;5114087;28;20699;-72
2022/11/16 00:07:03;;;;;;;168.95;57.72;;;10.90;99.90;;;;;;5114089;28;20214;-72
2022/11/16 00:09:31;;;;;;;159.27;56.83;;;10.90;99.90;;;;;;5095764;28;20227;-72
2022/11/16 00:11:59;;;;;;;160.57;57.78;;;10.90;99.90;;;;;;5114003;28;20168;-72
2022/11/16 00:14:27;;;;;;;150.18;57.60;;;10.80;99.90;;;;;;5113896;28;20245;-72
2022/11/16 00:16:54;;;;;;;155.70;55.08;;;10.80;99.90;;;;;;5113896;28;20267;-72
2022/11/16 00:19:19;;;;;;;179.13;58.75;;;10.80;99.90;;;;;;5095598;28;20621;-72
2022/11/16 00:21:45;;;;;;;168.80;54.00;;;10.90;99.90;;;;;;5113820;28;20200;-72
2022/11/16 00:24:13;;;;;;;165.23;57.13;;;10.90;99.90;;;;;;5113899;28;20180;-72
2022/11/16 00:26:39;;;;;;;144.13;58.90;;;10.90;99.90;;;;;;5095718;28;20944;-73
2022/11/16 00:29:05;;;;;;;162.63;59.70;;;10.90;99.90;;;;;;5095720;28;20186;-73
2022/11/16 00:31:31;;;;;;;151.25;57.53;;;10.90;99.90;;;;;;5095591;28;20432;-72
2022/11/16 00:33:57;;;;;;;173.83;57.80;;;10.90;99.90;;;;;;5114365;28;20168;-72
2022/11/16 00:36:23;;;;;;;168.10;56.50;;;10.90;99.90;;;;;;5095348;28;20424;-72
2022/11/16 00:38:52;;;;;;;165.83;58.97;;;10.90;99.90;;;;;;5095693;28;20412;-72
2022/11/16 00:41:18;;;;;;;157.77;57.45;;;10.90;99.90;;;;;;5095398;28;20448;-72
2022/11/16 00:43:44;;;;;;;154.27;58.73;;;10.90;99.90;;;;;;5095648;28;20202;-72
2022/11/16 00:46:09;;;;;;;145.77;54.63;;;10.90;99.90;;;;;;5113635;28;20606;-72
2022/11/16 00:48:35;;;;;;;152.50;56.73;;;10.90;99.90;;;;;;5114179;28;20621;-72
2022/11/16 00:51:01;;;;;;;156.83;58.20;;;10.90;99.90;;;;;;5113581;28;20212;-72
2022/11/16 00:53:27;;;;;;;163.83;58.07;;;10.90;99.90;;;;;;5113946;28;20180;-72
2022/11/16 00:55:52;;;;;;;155.93;54.47;;;10.90;99.90;;;;;;5095299;28;20219;-72
2022/11/16 00:58:18;;;;;;;161.43;56.60;;;10.90;99.90;;;;;;5113792;28;20463;-72
2022/11/16 01:00:45;;;;;;;147.17;54.67;;;10.90;99.90;;;;;;5098287;28;20195;-72
2022/11/16 01:03:10;;;;;;;164.40;57.40;;;10.90;99.90;;;;;;5098925;28;20180;-73
2022/11/16 01:05:36;;;;;;;142.13;55.80;;;10.90;99.90;;;;;;5098906;28;20199;-73
2022/11/16 01:08:02;;;;;;;149.67;54.40;;;10.90;99.90;;;;;;5098958;28;20183;-73
2022/11/16 01:10:28;;;;;;;154.07;55.57;;;10.90;99.90;;;;;;5117321;28;20522;-72
2022/11/16 01:12:55;;;;;;;174.88;57.95;;;10.90;99.90;;;;;;5098962;28;20412;-73
2022/11/16 01:15:23;;;;;;;157.68;55.95;;;10.90;99.90;;;;;;5116939;28;20200;-72
2022/11/16 01:17:49;;;;;;;171.98;60.75;;;10.90;99.90;;;;;;5098782;28;20218;-73
2022/11/16 01:20:17;;;;;;;176.77;59.47;;;10.90;99.90;;;;;;5116856;28;20692;-73
2022/11/16 01:22:44;;;;;;;171.02;60.53;;;10.80;99.90;;;;;;5098644;28;20228;-72
2022/11/16 01:25:11;;;;;;;173.52;58.35;;;10.80;99.90;;;;;;5116564;28;20702;-72
2022/11/16 01:27:38;;;;;;;187.18;60.67;;;10.80;99.90;;;;;;5117010;28;20206;-72
2022/11/16 01:30:05;;;;;;;190.57;58.15;;;10.80;99.90;;;;;;5116694;28;20564;-72
2022/11/16 01:32:31;;;;;;;180.20;59.15;;;10.80;99.90;;;;;;5098437;28;20573;-73
2022/11/16 01:34:57;;;;;;;183.40;58.83;;;10.80;99.90;;;;;;5116585;28;20194;-73
2022/11/16 01:37:22;;;;;;;178.57;56.67;;;10.80;99.90;;;;;;5116577;28;21044;-73
2022/11/16 01:39:49;;;;;;;180.00;58.67;;;10.80;99.90;;;;;;5098246;28;20748;-72
2022/11/16 01:42:17;;;;;;;158.65;55.30;;;10.80;99.90;;;;;;5116539;28;20183;-73
2022/11/16 01:44:43;;;;;;;163.68;59.05;;;10.80;99.90;;;;;;5098156;28;20255;-72
2022/11/16 01:47:12;;;;;;;171.03;55.60;;;10.70;99.90;;;;;;5098030;28;20262;-72
2022/11/16 01:50:01;;;;;;;142.60;55.00;;;10.70;99.90;;;;;;5098084;28;20210;-72
2022/11/16 01:52:30;;;;;;;149.55;52.40;;;10.70;99.90;;;;;;5115549;28;20526;-72
2022/11/16 01:54:56;;;;;;;138.13;48.92;;;10.70;99.90;;;;;;5097935;28;20242;-73
2022/11/16 01:57:31;;;;;;;150.65;50.20;;;10.70;99.90;;;;;;5116288;28;20207;-73
2022/11/16 01:59:59;;;;;;;157.60;51.33;;;10.70;99.90;;;;;;5097855;28;20211;-72
2022/11/16 02:02:25;;;;;;;155.73;53.17;;;10.70;99.90;;;;;;5097779;28;20197;-72
2022/11/16 02:04:52;;;;;;;143.57;49.07;;;10.70;99.90;;;;;;5097738;28;20200;-72
2022/11/16 02:09:52;;;;;;;139.23;51.08;;;10.70;99.90;;;;;;5116115;28;20182;-72
2022/11/16 02:10:37;;;;;;;142.73;49.75;;;10.70;99.90;;;;;;5115414;28;20298;-72
2022/11/16 02:13:13;;;;;;;126.78;49.70;;;10.70;99.90;;;;;;5097680;28;20207;-72
2022/11/16 02:15:48;;;;;;;135.48;50.38;;;10.70;99.90;;;;;;5097563;28;20241;-72
2022/11/16 02:18:41;;;;;;;119.93;46.30;;;10.70;99.90;;;;;;5097582;28;20575;-72
2022/11/16 02:21:24;;;;;;;116.60;47.95;;;10.70;99.90;;;;;;5097410;28;20214;-72
2022/11/16 02:24:10;;;;;;;146.35;48.72;;;10.70;99.90;;;;;;5116330;28;20251;-72
2022/11/16 02:27:09;;;;;;;163.38;53.45;;;10.70;99.90;;;;;;5093849;28;20236;-72
2022/11/16 02:29:40;;;;;;;137.15;49.33;;;10.70;99.90;;;;;;5093969;28;20240;-72
2022/11/16 02:32:17;;;;;;;159.18;49.72;;;10.70;99.90;;;;;;5095005;28;20180;-72
2022/11/16 02:35:13;;;;;;;141.23;48.78;;;10.60;99.90;;;;;;5093928;28;20657;-73
2022/11/16 02:37:48;;;;;;;124.68;46.50;;;10.60;99.90;;;;;;5093844;28;20623;-72
2022/11/16 02:40:17;;;;;;;138.57;49.85;;;10.60;99.90;;;;;;5095008;28;20282;-72
2022/11/16 02:42:51;;;;;;;137.35;49.90;;;10.60;99.90;;;;;;5094892;28;20176;-74
2022/11/16 02:45:26;;;;;;;142.93;52.22;;;10.60;99.90;;;;;;5094955;28;20196;-73
2022/11/16 02:47:57;;;;;;;152.57;52.17;;;10.70;99.90;;;;;;5093752;28;20180;-72
2022/11/16 02:50:24;;;;;;;153.90;50.50;;;10.70;99.90;;;;;;5093409;28;20234;-72
2022/11/16 02:52:49;;;;;;;160.55;50.85;;;10.70;99.90;;;;;;5095194;28;20172;-72
2022/11/16 02:55:15;;;;;;;160.00;54.37;;;10.60;99.90;;;;;;5094619;28;20717;-72
2022/11/16 02:58:04;;;;;;;137.83;51.03;;;10.60;99.90;;;;;;5094754;28;20252;-72
2022/11/16 03:00:36;;;;;;;152.20;51.10;;;10.70;99.90;;;;;;5086281;28;20212;-73
2022/11/16 03:03:08;;;;;;;157.38;51.47;;;10.60;99.90;;;;;;5093256;28;20176;-72
2022/11/16 03:05:49;;;;;;;139.32;49.00;;;10.60;99.90;;;;;;5094583;28;20684;-72
2022/11/16 03:08:41;;;;;;;155.13;54.78;;;10.60;99.90;;;;;;5093102;28;20211;-72
2022/11/16 03:14:02;;;;;;;123.20;48.10;;;10.60;99.90;;;;;;5095378;28;20183;-73
2022/11/16 03:16:33;;;;;;;127.40;52.08;;;10.50;99.90;;;;;;5094304;28;20161;-72
2022/11/16 03:19:02;;;;;;;139.45;52.35;;;10.50;99.90;;;;;;5093327;28;20188;-72
2022/11/16 03:21:46;;;;;;;156.48;54.75;;;10.50;99.90;;;;;;5094279;28;20172;-72
2022/11/16 03:24:13;;;;;;;128.13;51.20;;;10.50;99.90;;;;;;5093286;28;20693;-72
2022/11/16 03:26:49;;;;;;;142.38;53.05;;;10.50;99.90;;;;;;5093093;28;20689;-72
2022/11/16 03:29:44;;;;;;;134.95;50.13;;;10.50;99.90;;;;;;5092926;28;20637;-72
2022/11/16 03:32:24;;;;;;;138.70;52.80;;;10.50;99.90;;;;;;5094253;28;20207;-72
2022/11/16 03:35:05;;;;;;;131.13;51.97;;;10.50;99.90;;;;;;5092814;28;20253;-72
2022/11/16 03:37:31;;;;;;;138.13;53.00;;;10.50;99.90;;;;;;5094216;28;20673;-72
2022/11/16 03:40:00;;;;;;;137.27;54.15;;;10.40;99.90;;;;;;5093880;28;20207;-72
2022/11/16 03:42:27;;;;;;;145.88;55.00;;;10.40;99.90;;;;;;5094011;28;20210;-72
2022/11/16 03:44:54;;;;;;;122.13;52.90;;;10.40;99.90;;;;;;5092657;28;20786;-72
2022/11/16 03:47:20;;;;;;;129.30;51.58;;;10.40;99.90;;;;;;5092702;28;20173;-72
2022/11/16 03:49:46;;;;;;;137.33;53.47;;;10.30;99.90;;;;;;5093862;28;20681;-72
2022/11/16 03:52:14;;;;;;;131.68;52.13;;;10.30;99.90;;;;;;5092696;28;20597;-73
2022/11/16 03:54:40;;;;;;;144.77;54.35;;;10.30;99.90;;;;;;5093757;28;20196;-71
2022/11/16 03:57:06;;;;;;;154.17;58.83;;;10.30;99.90;;;;;;5092297;28;20692;-72
2022/11/16 03:59:32;;;;;;;140.97;53.77;;;10.30;99.90;;;;;;5093823;28;20530;-72
2022/11/16 04:01:58;;;;;;;125.28;52.67;;;10.30;99.90;;;;;;5092847;28;20192;-71
2022/11/16 04:28:11;;;;;;;112.53;47.50;;;10.40;99.90;;;;;;5108927;28;20262;-73
2022/11/16 04:29:10;;;;;;;117.43;49.47;;;10.40;99.90;;;;;;5113725;28;20171;-71
2022/11/16 04:39:49;;;;;;;107.97;48.47;;;10.50;99.90;;;;;;5117793;28;20197;-72
2022/11/16 04:42:18;;;;;;;113.77;48.53;;;10.50;99.90;;;;;;5099404;28;20528;-72
2022/11/16 04:47:28;;;;;;;99.68;46.97;;;10.60;99.90;;;;;;5118063;28;20255;-72
2022/11/16 04:49:54;;;;;;;107.97;48.73;;;10.60;99.90;;;;;;5099236;28;20664;-72
2022/11/16 04:52:20;;;;;;;103.40;48.27;;;10.70;99.90;;;;;;5117886;28;20206;-72
2022/11/16 04:54:45;;;;;;;99.67;46.03;;;10.70;99.90;;;;;;5117237;28;20633;-72
2022/11/16 04:57:11;;;;;;;109.67;48.07;;;10.70;99.90;;;;;;5098934;28;20215;-72
2022/11/16 04:59:37;;;;;;;103.13;48.47;;;10.80;99.90;;;;;;5117330;28;20278;-72
2022/11/16 05:02:08;;;;;;;98.33;50.10;;;10.80;99.90;;;;;;5099415;28;20719;-72
2022/11/16 05:04:39;;;;;;;98.43;46.35;;;10.80;99.90;;;;;;5117254;28;20196;-72
2022/11/16 05:07:10;;;;;;;101.25;47.25;;;10.80;99.90;;;;;;5098845;28;20188;-72
2022/11/16 05:09:41;;;;;;;95.57;43.38;;;10.80;99.90;;;;;;5117150;28;20275;-73
2022/11/16 05:12:15;;;;;;;96.13;46.75;;;10.80;99.90;;;;;;5098902;28;20180;-72
2022/11/16 05:14:41;;;;;;;96.30;46.92;;;10.80;99.90;;;;;;5117062;28;20195;-72
2022/11/16 05:17:07;;;;;;;103.72;44.72;;;10.80;99.90;;;;;;5116872;28;20211;-71
2022/11/16 05:22:17;;;;;;;103.88;46.45;;;10.80;99.90;;;;;;5116139;28;20271;-73
2022/11/16 05:24:43;;;;;;;108.27;50.00;;;10.80;99.90;;;;;;5115411;28;20240;-73
2022/11/16 05:27:12;;;;;;;104.77;46.87;;;10.70;99.90;;;;;;5115593;28;20172;-72
2022/11/16 05:29:38;;;;;;;110.13;49.10;;;10.70;99.90;;;;;;5115116;28;20428;-72
2022/11/16 05:32:04;;;;;;;115.50;50.65;;;10.60;99.90;;;;;;5114676;28;20524;-72
2022/11/16 05:34:31;;;;;;;100.22;49.00;;;10.60;99.90;;;;;;5096896;28;20200;-72
2022/11/16 05:36:57;;;;;;;113.82;49.25;;;10.50;99.90;;;;;;5104763;28;20219;-73
2022/11/16 05:39:24;;;;;;;106.65;48.90;;;10.50;99.90;;;;;;5094226;28;20447;-73
2022/11/16 05:41:50;;;;;;;121.22;52.78;;;10.50;99.90;;;;;;5092602;28;20176;-72
2022/11/16 05:44:16;;;;;;;102.87;48.30;;;10.50;99.90;;;;;;5093932;28;20181;-72
2022/11/16 05:46:42;;;;;;;109.80;49.15;;;10.50;99.90;;;;;;5092833;28;20932;-72
2022/11/16 05:49:08;;;;;;;117.40;52.25;;;10.60;99.90;;;;;;5092608;28;20188;-72
2022/11/16 05:51:35;;;;;;;111.30;50.17;;;10.60;99.90;;;;;;5093968;28;20176;-72
2022/11/16 05:54:02;;;;;;;118.73;51.73;;;10.60;99.90;;;;;;5090930;28;20922;-72
2022/11/16 05:56:28;;;;;;;111.00;51.65;;;10.60;99.90;;;;;;5086668;28;20424;-72
2022/11/16 05:58:54;;;;;;;107.85;50.95;;;10.60;99.90;;;;;;5098120;28;20219;-72
2022/11/16 06:01:20;;;;;;;107.87;53.10;;;10.60;99.90;;;;;;5103309;28;20207;-72
2022/11/16 06:03:46;;;;;;;117.63;56.40;;;10.60;99.90;;;;;;5077799;28;20425;-72
2022/11/16 06:06:11;;;;;;;130.43;55.10;;;10.50;99.90;;;;;;5091184;28;20456;-72
2022/11/16 06:08:37;;;;;;;111.87;54.63;;;10.50;99.90;;;;;;5114516;28;20179;-72
2022/11/16 06:11:05;;;;;;;109.27;55.73;;;10.50;99.90;;;;;;5076798;28;20200;-72
2022/11/16 06:13:31;;;;;;;122.65;57.13;;;10.50;99.90;;;;;;5075966;28;20181;-72
2022/11/16 06:15:57;;;;;;;116.85;55.47;;;10.50;99.90;;;;;;5093850;28;20588;-72
2022/11/16 06:18:23;;;;;;;120.25;56.58;;;10.40;99.90;;;;;;5075617;28;20285;-72
2022/11/16 06:20:49;;;;;;;117.80;55.50;;;10.40;99.90;;;;;;5095332;28;20196;-72
2022/11/16 06:23:14;;;;;;;136.98;58.47;;;10.40;99.90;;;;;;5095466;28;20188;-71
2022/11/16 06:25:40;;;;;;;127.83;57.80;;;10.40;99.90;;;;;;5083615;28;20227;-72
2022/11/16 06:28:06;;;;;;;123.20;58.10;;;10.40;99.90;;;;;;5089932;28;20194;-71
2022/11/16 06:30:32;;;;;;;126.70;55.57;;;10.40;99.90;;;;;;5111411;28;20200;-72
2022/11/16 06:32:58;;;;;;;114.03;53.10;;;10.40;99.90;;;;;;5112971;28;20908;-72
2022/11/16 06:35:23;;;;;;;125.33;62.10;;;10.40;99.90;;;;;;5102307;28;20208;-71
2022/11/16 06:37:49;;;;;;;125.70;60.87;;;10.30;99.90;;;;;;5113032;28;20964;-72
2022/11/16 06:40:15;;;;;;;125.00;56.27;;;10.30;99.90;;;;;;5094299;28;20676;-72
2022/11/16 06:42:40;;;;;;;145.13;57.87;;;10.40;99.90;;;;;;5109218;28;20333;-72
2022/11/16 06:45:07;;;;;;;125.00;56.00;;;10.40;99.90;;;;;;5114322;28;20463;-72
2022/11/16 06:47:33;;;;;;;134.02;57.47;;;10.40;99.90;;;;;;5115200;28;20726;-71
2022/11/16 06:49:59;;;;;;;127.90;58.37;;;10.40;99.90;;;;;;5096020;28;20290;-72
2022/11/16 06:52:25;;;;;;;135.57;58.37;;;10.40;99.90;;;;;;5110246;28;20184;-72
2022/11/16 06:54:51;;;;;;;123.73;56.80;;;10.40;99.90;;;;;;5110023;28;20450;-72
2022/11/16 06:57:16;;;;;;;133.90;61.57;;;10.40;99.90;;;;;;5110896;28;20521;-72
2022/11/16 06:59:42;;;;;;;127.43;58.50;;;10.40;99.90;;;;;;5093470;28;20195;-72
2022/11/16 07:02:09;;;;;;;132.00;60.63;;;10.40;99.90;;;;;;5092821;28;20825;-72
2022/11/16 07:04:35;;;;;;;129.15;57.22;;;10.40;99.90;;;;;;5093966;28;20596;-72
2022/11/16 07:07:01;;;;;;;115.00;55.67;;;10.40;99.90;;;;;;5111992;28;20361;-73
2022/11/16 07:09:26;;;;;;;134.23;60.10;;;10.40;99.90;;;;;;5110205;28;20680;-72
2022/11/16 07:11:52;;;;;;;160.60;63.53;;;10.40;99.90;;;;;;5107960;28;20707;-73
2022/11/16 07:14:17;;;;;;;134.17;59.43;;;10.40;99.90;;;;;;5107672;28;20266;-72
2022/11/16 07:16:43;;;;;;;131.97;62.73;;;10.40;99.90;;;;;;5090770;28;20593;-71
2022/11/16 07:19:09;;;;;;;140.10;59.93;;;10.50;99.90;;;;;;5107997;28;20183;-72
2022/11/16 07:21:36;;;;;;;130.23;58.77;;;10.50;99.90;;;;;;5107395;28;20176;-72
2022/11/16 07:24:01;;;;;;;132.63;60.55;;;10.50;99.90;;;;;;5106259;28;20455;-72
2022/11/16 07:26:30;;;;;;;140.43;61.10;;;10.50;99.90;;;;;;5080115;28;20693;-72
2022/11/16 07:28:59;;;;;;;142.13;60.47;;;10.50;99.90;;;;;;5088988;28;20181;-72
2022/11/16 07:31:26;;;;;;;141.02;61.33;;;10.50;99.90;;;;;;5088516;28;20609;-72
2022/11/16 07:33:53;;;;;;;135.87;61.83;;;10.50;99.90;;;;;;5090358;28;20204;-72
2022/11/16 07:36:19;;;;;;;124.70;60.72;;;10.50;99.90;;;;;;5085197;28;20500;-73
2022/11/16 07:38:45;;;;;;;131.20;60.58;;;10.50;99.90;;;;;;5091302;28;20216;-72
2022/11/16 07:41:17;;;;;;;136.87;63.80;;;10.50;99.90;;;;;;5090604;28;20230;-72
2022/11/16 07:43:42;;;;;;;136.82;59.05;;;10.50;99.90;;;;;;5088506;28;20168;-72
2022/11/16 07:46:17;;;;;;;134.17;63.57;;;10.50;99.90;;;;;;5089287;28;20226;-72
2022/11/16 07:48:43;;;;;;;133.07;58.25;;;10.50;99.90;;;;;;5089952;28;20172;-72
2022/11/16 07:51:12;;;;;;;125.38;61.92;;;10.50;99.90;;;;;;5088898;28;20681;-73
2022/11/16 07:53:38;;;;;;;116.35;56.30;;;10.50;99.90;;;;;;5088071;28;20544;-72
2022/11/16 07:56:05;;;;;;;117.70;52.55;;;10.60;99.90;;;;;;5088416;28;20646;-71
2022/11/16 07:58:32;;;;;;;119.68;56.10;;;10.60;99.90;;;;;;5089057;28;20569;-72
2022/11/16 08:01:13;;;;;;;133.35;59.70;;;10.60;99.90;;;;;;5094695;28;20240;-73
2022/11/16 08:03:41;;;;;;;116.68;55.05;;;10.60;99.90;;;;;;5075341;28;20192;-72
2022/11/16 08:06:15;;;;;;;119.03;56.20;;;10.60;99.90;;;;;;5087436;28;20292;-72
2022/11/16 08:08:40;;;;;;;111.93;56.67;;;10.60;99.90;;;;;;5087203;28;20173;-72
2022/11/16 08:11:08;;;;;;;120.77;60.20;;;10.70;99.90;;;;;;5090235;28;20245;-72
2022/11/16 08:13:36;;;;;;;112.70;58.35;;;10.70;99.90;;;;;;5088850;28;20550;-72
2022/11/16 08:16:04;;;;;;;123.30;59.97;;;10.70;99.90;;;;;;5093634;28;20681;-72
2022/11/16 08:18:30;;;;;;;126.65;60.92;;;10.70;99.90;;;;;;5094848;28;20216;-72
2022/11/16 08:21:00;;;;;;;122.47;54.77;;;10.70;99.90;;;;;;5093446;28;20203;-72
2022/11/16 08:23:27;;;;;;;123.68;58.65;;;10.70;99.90;;;;;;5094135;28;20429;-72
2022/11/16 08:26:08;;;;;;;117.53;55.80;;;10.80;99.90;;;;;;5110715;28;20228;-72
2022/11/16 08:28:35;;;;;;;123.25;57.13;;;10.80;99.90;;;;;;5093619;28;20184;-72
2022/11/16 08:31:11;;;;;;;118.18;58.00;;;10.80;99.90;;;;;;5094803;28;20192;-72
2022/11/16 08:33:37;;;;;;;128.70;56.80;;;10.90;99.90;;;;;;5090496;28;20328;-73
2022/11/16 08:36:07;;;;;;;126.87;55.87;;;10.90;99.90;;;;;;5091987;28;20208;-72
2022/11/16 08:38:33;;;;;;;110.23;55.80;;;10.90;99.90;;;;;;5091191;28;20580;-72
2022/11/16 08:40:59;;;;;;;119.53;53.83;;;10.90;99.90;;;;;;5095814;28;20425;-72
2022/11/16 08:43:25;;;;;;;108.97;52.73;;;10.90;99.90;;;;;;5094958;28;20981;-72
2022/11/16 08:45:54;;;;;;;105.07;53.13;;;10.90;99.90;;;;;;5095416;28;20227;-71
2022/11/16 08:48:20;;;;;;;110.50;52.30;;;10.90;99.90;;;;;;5076155;28;20792;-71
2022/11/16 08:50:46;;;;;;;107.27;52.50;;;10.90;99.90;;;;;;5091747;28;20773;-72
2022/11/16 08:53:14;;;;;;;108.50;53.40;;;10.90;99.90;;;;;;5090978;28;20188;-71
2022/11/16 08:55:43;;;;;;;112.47;53.90;;;10.90;99.90;;;;;;5081623;28;20204;-72
2022/11/16 08:58:09;;;;;;;113.87;53.47;;;10.90;99.90;;;;;;5073177;28;20259;-72
2022/11/16 09:00:35;;;;;;;103.67;50.03;;;10.90;99.90;;;;;;5089854;28;20477;-72
2022/11/16 09:03:01;;;;;;;105.13;52.13;;;11.00;99.90;;;;;;5086924;28;20425;-72
2022/11/16 09:05:27;;;;;;;98.47;52.43;;;11.00;99.90;;;;;;5089574;28;20204;-72
2022/11/16 09:07:53;;;;;;;100.97;50.50;;;11.10;99.90;;;;;;5086338;28;20657;-72
2022/11/16 09:10:21;;;;;;;102.27;53.10;;;11.10;99.90;;;;;;5090412;28;20196;-72
2022/11/16 09:12:48;;;;;;;101.43;49.80;;;11.10;99.90;;;;;;5091620;28;20255;-72
2022/11/16 09:15:14;;;;;;;110.37;52.57;;;11.10;99.90;;;;;;5087680;28;20552;-72
2022/11/16 09:17:40;;;;;;;95.57;51.97;;;11.20;99.90;;;;;;5095042;28;20563;-72
2022/11/16 09:20:06;;;;;;;98.13;50.77;;;11.20;99.90;;;;;;5094370;28;20452;-72
2022/11/16 09:22:32;;;;;;;103.00;50.27;;;11.20;99.90;;;;;;5091560;28;20211;-72
2022/11/16 09:24:58;;;;;;;102.57;51.90;;;11.30;99.90;;;;;;5091823;28;20511;-72
2022/11/16 09:27:23;;;;;;;108.77;50.17;;;11.30;99.90;;;;;;5092880;28;20191;-72
2022/11/16 09:29:49;;;;;;;108.53;50.87;;;11.40;99.90;;;;;;5087495;28;20804;-72
2022/11/16 09:32:15;;;;;;;102.20;51.77;;;11.40;99.90;;;;;;5085456;28;20843;-72
2022/11/16 09:34:41;;;;;;;96.83;49.10;;;11.50;99.90;;;;;;5096736;28;20458;-73
2022/11/16 09:37:07;;;;;;;126.50;62.77;;;11.60;99.90;;;;;;5093812;28;20247;-72
2022/11/16 09:39:33;;;;;;;91.90;51.93;;;11.60;99.90;;;;;;5094564;28;20188;-73
2022/11/16 09:42:18;;;;;;;93.17;50.70;;;11.70;99.90;;;;;;5091806;28;20413;-72
2022/11/16 09:45:14;;;;;;;88.23;49.10;;;11.70;99.90;;;;;;5092347;28;20534;-72
2022/11/16 09:47:49;;;;;;;88.10;47.93;;;11.80;99.90;;;;;;5087098;28;20453;-72
2022/11/16 09:50:23;;;;;;;89.90;48.77;;;11.90;99.90;;;;;;5087500;28;20547;-72
2022/11/16 09:52:51;;;;;;;88.63;47.90;;;11.90;99.90;;;;;;5088829;28;20436;-72
2022/11/16 09:55:31;;;;;;;97.03;48.30;;;11.90;99.90;;;;;;5107399;28;20445;-72
2022/11/16 09:58:00;;;;;;;89.53;47.90;;;12.00;99.90;;;;;;5079312;28;20480;-73
2022/11/16 10:00:27;;;;;;;95.60;49.70;;;12.00;99.90;;;;;;5086874;28;20531;-72
2022/11/16 10:03:09;;;;;;;89.00;47.67;;;12.10;99.90;;;;;;5089964;28;20524;-72
2022/11/16 10:05:42;;;;;;;92.10;51.23;;;12.10;99.90;;;;;;5087366;28;20531;-72
2022/11/16 10:08:46;;;;;;;83.00;45.77;;;12.10;99.90;;;;;;5088754;28;20658;-72
2022/11/16 10:12:02;;;;;;;83.17;46.30;;;12.20;99.90;;;;;;5072108;28;20783;-73
2022/11/16 10:14:45;;;;;;;81.63;47.83;;;12.20;99.90;;;;;;5071163;28;20545;-72
2022/11/16 10:17:37;;;;;;;76.87;45.37;;;12.20;99.90;;;;;;5071559;28;20523;-72
2022/11/16 10:20:40;;;;;;;82.20;46.67;;;12.20;99.90;;;;;;5075905;28;20901;-72
2022/11/16 10:23:59;;;;;;;85.33;43.93;;;12.20;99.90;;;;;;5084017;28;20429;-72
2022/11/16 10:26:34;;;;;;;81.83;44.97;;;12.20;99.90;;;;;;5029518;28;20482;-72
2022/11/16 10:29:37;;;;;;;73.47;44.60;;;12.20;99.90;;;;;;5086503;28;20433;-72
2022/11/16 10:32:24;;;;;;;77.57;45.70;;;12.20;99.90;;;;;;5088079;28;20467;-72
2022/11/16 10:35:10;;;;;;;74.93;46.10;;;12.30;99.90;;;;;;5090654;28;20556;-72
2022/11/16 10:37:50;;;;;;;76.27;45.07;;;12.30;99.90;;;;;;5083376;28;20990;-72
2022/11/16 10:40:23;;;;;;;77.93;45.43;;;12.30;99.90;;;;;;5088290;28;20436;-72
2022/11/16 10:43:03;;;;;;;80.80;46.07;;;12.30;99.90;;;;;;5087298;28;20489;-72
2022/11/16 10:45:54;;;;;;;75.77;43.90;;;12.40;99.90;;;;;;5088649;28;20486;-72
2022/11/16 10:48:49;;;;;;;69.80;44.07;;;12.40;99.90;;;;;;5088009;28;20444;-72
2022/11/16 10:51:14;;;;;;;77.87;43.60;;;12.40;99.90;;;;;;5091289;28;20997;-72
2022/11/16 10:53:45;;;;;;;73.50;45.33;;;12.50;99.90;;;;;;5093088;28;20482;-72
2022/11/16 10:56:28;;;;;;;70.40;43.30;;;12.40;99.90;;;;;;5090122;28;20555;-72
2022/11/16 10:58:55;;;;;;;74.27;44.20;;;12.40;99.90;;;;;;5091942;28;20480;-72
2022/11/16 11:01:36;;;;;;;75.77;43.80;;;12.40;99.90;;;;;;5107511;28;20992;-72
2022/11/16 11:04:13;;;;;;;70.57;43.50;;;12.40;99.90;;;;;;5090313;28;20432;-72
2022/11/16 11:06:39;;;;;;;65.33;40.37;;;12.40;99.90;;;;;;5089285;28;20429;-72
2022/11/16 11:09:20;;;;;;;74.07;44.57;;;12.40;99.90;;;;;;5088608;28;20444;-72
2022/11/16 11:15:14;;;;;;;65.90;40.00;;;12.40;99.90;;;;;;5090116;28;20483;-72
2022/11/16 11:17:42;;;;;;;74.73;43.47;;;12.40;99.90;;;;;;5086646;28;20476;-72
2022/11/16 11:20:14;;;;;;;66.37;41.20;;;12.40;99.90;;;;;;5106886;28;20443;-72
2022/11/16 11:22:56;;;;;;;63.53;40.07;;;12.40;99.90;;;;;;5081073;28;20442;-72
2022/11/16 11:25:28;;;;;;;71.10;40.90;;;12.40;99.90;;;;;;5077525;28;21062;-72
2022/11/16 11:28:19;;;;;;;61.20;38.67;;;12.40;99.90;;;;;;5086281;28;20452;-72
2022/11/16 11:31:08;;;;;;;67.27;41.13;;;12.40;99.90;;;;;;5091632;28;20915;-72
2022/11/16 11:33:52;;;;;;;62.97;37.50;;;12.40;99.90;;;;;;5094461;28;20814;-72
2022/11/16 11:36:24;;;;;;;65.07;38.53;;;12.40;99.90;;;;;;5079433;28;20451;-72
2022/11/16 11:39:10;;;;;;;61.53;38.60;;;12.40;99.90;;;;;;5091100;28;20843;-72
2022/11/16 11:41:37;;;;;;;70.67;43.20;;;12.40;99.90;;;;;;5072950;28;20479;-72
2022/11/16 11:44:12;;;;;;;84.57;48.70;;;12.40;99.90;;;;;;5085574;28;20453;-73
2022/11/16 11:46:44;;;;;;;77.20;46.00;;;12.40;99.90;;;;;;5081885;28;20393;-72
2022/11/16 11:49:24;;;;;;;68.90;39.90;;;12.50;99.90;;;;;;5088557;28;20432;-73
2022/11/16 11:51:51;;;;;;;64.37;40.10;;;12.50;99.90;;;;;;5083072;28;20414;-71
2022/11/16 11:54:30;;;;;;;65.23;42.53;;;12.50;99.90;;;;;;5082575;28;20409;-72
2022/11/16 11:56:57;;;;;;;62.30;40.20;;;12.50;99.90;;;;;;5089218;28;20453;-72
2022/11/16 11:59:24;;;;;;;69.97;42.27;;;12.50;99.90;;;;;;5090331;28;20437;-72
2022/11/16 12:02:24;;;;;;;77.03;44.90;;;12.50;99.90;;;;;;5087592;28;20950;-72
2022/11/16 12:05:11;;;;;;;67.50;44.30;;;12.50;99.90;;;;;;5071576;28;20444;-72
2022/11/16 12:07:51;;;;;;;74.57;46.40;;;12.50;99.90;;;;;;5083754;28;20479;-72
2022/11/16 12:10:33;;;;;;;74.00;44.80;;;12.50;99.90;;;;;;5105955;28;20443;-72
2022/11/16 12:13:36;;;;;;;70.17;44.77;;;12.50;99.90;;;;;;5104547;28;20465;-72
2022/11/16 12:16:31;;;;;;;69.00;44.60;;;12.50;99.90;;;;;;5086348;28;20456;-72
2022/11/16 12:19:44;;;;;;;72.27;42.77;;;12.50;99.90;;;;;;5088725;28;20472;-72
2022/11/16 12:22:39;;;;;;;63.57;41.17;;;12.60;99.90;;;;;;5079608;28;20433;-72
2022/11/16 12:25:10;;;;;;;62.10;41.33;;;12.50;99.90;;;;;;5085216;28;20467;-72
2022/11/16 12:28:02;;;;;;;69.13;41.37;;;12.60;99.90;;;;;;5104831;28;20446;-72
2022/11/16 12:30:32;;;;;;;69.83;42.30;;;12.60;99.90;;;;;;5102573;28;21035;-72
2022/11/16 12:33:09;;;;;;;69.10;43.53;;;12.60;99.90;;;;;;5082043;28;20470;-72
2022/11/16 12:36:04;;;;;;;79.57;48.73;;;12.60;99.90;;;;;;5099369;28;20509;-73
2022/11/16 12:38:42;;;;;;;83.90;55.87;;;12.60;99.90;;;;;;5027051;28;20533;-72
2022/11/16 12:41:30;;;;;;;71.17;43.77;;;12.60;99.90;;;;;;5089309;28;20968;-72
2022/11/16 12:44:09;;;;;;;71.70;41.97;;;12.60;99.90;;;;;;5082087;28;20436;-72
2022/11/16 12:46:35;;;;;;;63.03;41.73;;;12.60;99.90;;;;;;5105827;28;20426;-72
2022/11/16 12:49:28;;;;;;;77.13;43.20;;;12.60;99.90;;;;;;5086913;28;20436;-72
2022/11/16 12:52:18;;;;;;;70.53;42.60;;;12.60;99.90;;;;;;5085696;28;20183;-73
2022/11/16 12:54:43;;;;;;;70.13;42.27;;;12.60;99.90;;;;;;5106081;28;20458;-72
2022/11/16 12:57:35;;;;;;;66.83;42.10;;;12.60;99.90;;;;;;5092285;28;20420;-72
2022/11/16 13:00:09;;;;;;;74.33;43.47;;;12.50;99.90;;;;;;5090947;28;20198;-72
2022/11/16 13:03:08;;;;;;;72.20;43.00;;;12.60;99.90;;;;;;5089568;28;20581;-72
2022/11/16 13:06:00;;;;;;;73.50;41.97;;;12.60;99.90;;;;;;5111056;28;20543;-72
2022/11/16 13:08:48;;;;;;;69.27;43.03;;;12.50;99.90;;;;;;5091438;28;20828;-72
2022/11/16 13:11:17;;;;;;;59.90;38.93;;;12.60;99.90;;;;;;5093707;28;21015;-72
2022/11/16 13:13:44;;;;;;;73.30;43.53;;;12.50;99.90;;;;;;5108333;28;20434;-72
2022/11/16 13:16:15;;;;;;;64.37;41.77;;;12.50;99.90;;;;;;5090655;28;20808;-72
2022/11/16 13:18:42;;;;;;;73.87;39.80;;;12.50;99.90;;;;;;5109078;28;20697;-72
2022/11/16 13:21:30;;;;;;;80.40;44.63;;;12.50;99.90;;;;;;5114271;27;20462;-72
2022/11/16 13:24:39;;;;;;;75.80;45.60;;;12.50;99.90;;;;;;5114435;27;20935;-72
2022/11/16 13:27:17;;;;;;;76.60;44.73;;;12.50;99.90;;;;;;5081479;28;20821;-72
2022/11/16 13:29:46;;;;;;;69.43;41.17;;;12.50;99.90;;;;;;5097909;28;20573;-73